Time;durP1;ratioP1;P1;durP2;ratioP2;P2;SDS_P1;SDS_P2;PMS_P1;PMS_P2;Temp;Humidity;BMP_temperature;BMP_pressure;BME280_temperature;BME280_humidity;BME280_pressure;Samples;Min_cycle;Max_cycle;Signal;HPM_P1;HPM_P2
2021/11/21 00:02:08;;;;;;;;;;;;;;;;;;5079777;28;19919;-79
2021/11/21 00:04:34;;;;;;;;;;;;;;;;;;5066282;28;19983;-80
2021/11/21 00:06:59;;;;;;;;;;;;;;;;;;5059796;28;19920;-80
2021/11/21 00:09:24;;;;;;;;;;;;;;;;;;5058967;28;19966;-80
2021/11/21 00:11:50;;;;;;;;;;;;;;;;;;5057443;28;19991;-80
2021/11/21 00:14:15;;;;;;;;;;;;;;;;;;5058497;28;20007;-80
2021/11/21 00:16:40;;;;;;;;;;;;;;;;;;5059298;28;19913;-80
2021/11/21 00:19:08;;;;;;;;;;;;;;;;;;5069338;28;19916;-80
2021/11/21 00:21:33;;;;;;;;;;;;;;;;;;5078800;28;19916;-80
2021/11/21 00:23:59;;;;;;;;;;;;;;;;;;5078066;28;19919;-80
2021/11/21 00:26:24;;;;;;;;;;;;;;;;;;5078118;28;19916;-80
2021/11/21 00:28:50;;;;;;;;;;;;;;;;;;5079509;28;20294;-80
2021/11/21 00:31:16;;;;;;;;;;;;;;;;;;5080231;28;19913;-80
2021/11/21 00:33:42;;;;;;;;;;;;;;;;;;5080978;28;19919;-80
2021/11/21 00:36:08;;;;;;;;;;;;;;;;;;5081412;28;19912;-80
2021/11/21 00:38:33;;;;;;;;;;;;;;;;;;5082408;28;19923;-80
2021/11/21 00:40:59;;;;;;;;;;;;;;;;;;5082547;28;20285;-80
2021/11/21 00:43:24;;;;;;;;;;;;;;;;;;5083237;28;19912;-80
2021/11/21 00:45:49;;;;;;;;;;;;;;;;;;5065834;28;19917;-80
2021/11/21 00:48:20;;;;;;;;;;;;;;;;;;5060752;28;19912;-80
2021/11/21 00:50:45;;;;;;;;;;;;;;;;;;5061319;28;20422;-80
2021/11/21 00:53:11;;;;;;;;;;;;;;;;;;5061805;28;20014;-80
2021/11/21 00:55:42;;;;;;;;;;;;;;;;;;5062151;28;20382;-80
2021/11/21 00:58:12;;;;;;;;;;;;;;;;;;5062414;28;19958;-80
2021/11/21 01:00:38;;;;;;;;;;;;;;;;;;5061164;28;19923;-80
2021/11/21 01:03:05;;;;;;;;;;;;;;;;;;5061798;28;19919;-80
2021/11/21 01:05:30;;;;;;;;;;;;;;;;;;5062410;28;19912;-80
2021/11/21 01:07:55;;;;;;;;;;;;;;;;;;5061453;28;19981;-80
2021/11/21 01:10:21;;;;;;;;;;;;;;;;;;5060652;28;19912;-80
2021/11/21 01:12:47;;;;;;;;;;;;;;;;;;5060738;28;19912;-80
2021/11/21 01:15:15;;;;;;;;;;;;;;;;;;5069646;28;19916;-80
2021/11/21 01:17:41;;;;;;;;;;;;;;;;;;5080048;28;19916;-80
2021/11/21 01:20:07;;;;;;;;;;;;;;;;;;5079405;28;20263;-80
2021/11/21 01:22:35;;;;;;;;;;;;;;;;;;5080180;28;19965;-80
2021/11/21 01:25:00;;;;;;;;;;;;;;;;;;5079977;28;20310;-80
2021/11/21 01:27:26;;;;;;;;;;;;;;;;;;5078572;28;20021;-80
2021/11/21 01:29:51;;;;;;;;;;;;;;;;;;5079873;28;20001;-80
2021/11/21 01:32:17;;;;;;;;;;;;;;;;;;5078237;28;19970;-80
2021/11/21 01:34:42;;;;;;;;;;;;;;;;;;5079470;28;19913;-80
2021/11/21 01:37:07;;;;;;;;;;;;;;;;;;5078941;28;19913;-80
2021/11/21 01:39:33;;;;;;;;;;;;;;;;;;5079550;28;19916;-80
2021/11/21 01:41:58;;;;;;;;;;;;;;;;;;5077606;28;19912;-80
2021/11/21 01:44:24;;;;;;;;;;;;;;;;;;5079387;28;19927;-80
2021/11/21 01:46:51;;;;;;;;;;;;;;;;;;5079237;28;20282;-80
2021/11/21 01:49:17;;;;;;;;;;;;;;;;;;5066415;28;20327;-80
2021/11/21 01:51:42;;;;;;;;;;;;;;;;;;5058870;28;19912;-80
2021/11/21 01:54:08;;;;;;;;;;;;;;;;;;5058763;28;19912;-79
2021/11/21 01:56:33;;;;;;;;;;;;;;;;;;5058271;28;20016;-80
2021/11/21 01:58:59;;;;;;;;;;;;;;;;;;5058947;28;19912;-80
2021/11/21 02:01:24;;;;;;;;;;;;;;;;;;5064014;28;19924;-80
2021/11/21 02:03:51;;;;;;;;;;;;;;;;;;5064346;28;19925;-80
2021/11/21 02:06:16;;;;;;;;;;;;;;;;;;5063638;28;19991;-80
2021/11/21 02:08:42;;;;;;;;;;;;;;;;;;5064219;28;19920;-80
2021/11/21 02:11:07;;;;;;;;;;;;;;;;;;5063572;28;19912;-79
2021/11/21 02:13:32;;;;;;;;;;;;;;;;;;5063848;28;19975;-80
2021/11/21 02:15:58;;;;;;;;;;;;;;;;;;5061928;28;19912;-80
2021/11/21 02:18:23;;;;;;;;;;;;;;;;;;5063105;28;19917;-80
2021/11/21 02:20:53;;;;;;;;;;;;;;;;;;5063246;28;19957;-80
2021/11/21 02:23:20;;;;;;;;;;;;;;;;;;5062730;28;20385;-80
2021/11/21 02:25:45;;;;;;;;;;;;;;;;;;5062989;28;19912;-80
2021/11/21 02:28:10;;;;;;;;;;;;;;;;;;5062724;28;19916;-80
2021/11/21 02:30:36;;;;;;;;;;;;;;;;;;5062497;28;19913;-80
2021/11/21 02:33:02;;;;;;;;;;;;;;;;;;5062577;28;19913;-80
2021/11/21 02:35:27;;;;;;;;;;;;;;;;;;5071966;28;19990;-80
2021/11/21 02:37:52;;;;;;;;;;;;;;;;;;5073634;28;19913;-80
2021/11/21 02:40:18;;;;;;;;;;;;;;;;;;5064756;28;19986;-80
2021/11/21 02:42:44;;;;;;;;;;;;;;;;;;5064236;28;20011;-80
2021/11/21 02:45:11;;;;;;;;;;;;;;;;;;5063654;28;19917;-80
2021/11/21 02:47:36;;;;;;;;;;;;;;;;;;5063613;28;19916;-80
2021/11/21 02:50:05;;;;;;;;;;;;;;;;;;5063038;28;19932;-80
2021/11/21 02:52:30;;;;;;;;;;;;;;;;;;5061195;28;19913;-80
2021/11/21 02:54:57;;;;;;;;;;;;;;;;;;5060672;28;19912;-80
2021/11/21 02:57:23;;;;;;;;;;;;;;;;;;5061733;28;19919;-80
2021/11/21 02:59:49;;;;;;;;;;;;;;;;;;5062097;28;20358;-80
2021/11/21 03:02:14;;;;;;;;;;;;;;;;;;5061342;28;19917;-80
2021/11/21 03:04:40;;;;;;;;;;;;;;;;;;5061179;28;19913;-79
2021/11/21 03:07:05;;;;;;;;;;;;;;;;;;5061436;28;19958;-79
2021/11/21 03:09:31;;;;;;;;;;;;;;;;;;5061455;28;19919;-79
2021/11/21 03:11:58;;;;;;;;;;;;;;;;;;5060049;28;19913;-79
2021/11/21 03:14:24;;;;;;;;;;;;;;;;;;5060460;28;19913;-79
2021/11/21 03:16:49;;;;;;;;;;;;;;;;;;5058865;28;20003;-80
2021/11/21 03:19:15;;;;;;;;;;;;;;;;;;5060202;28;19960;-79
2021/11/21 03:21:41;;;;;;;;;;;;;;;;;;5060373;28;19913;-79
2021/11/21 03:24:06;;;;;;;;;;;;;;;;;;5060005;28;19935;-79
2021/11/21 03:26:32;;;;;;;;;;;;;;;;;;5060259;28;19913;-79
2021/11/21 03:28:57;;;;;;;;;;;;;;;;;;5059616;28;20386;-79
2021/11/21 03:31:23;;;;;;;;;;;;;;;;;;5059839;28;19920;-79
2021/11/21 03:33:48;;;;;;;;;;;;;;;;;;5060016;28;19913;-79
2021/11/21 03:36:14;;;;;;;;;;;;;;;;;;5057981;28;19916;-79
2021/11/21 03:38:39;;;;;;;;;;;;;;;;;;5077144;28;19920;-79
2021/11/21 03:41:04;;;;;;;;;;;;;;;;;;5078025;28;19912;-79
2021/11/21 03:43:30;;;;;;;;;;;;;;;;;;5079295;28;19966;-80
2021/11/21 03:45:55;;;;;;;;;;;;;;;;;;5079294;28;20015;-79
2021/11/21 03:48:21;;;;;;;;;;;;;;;;;;5079230;28;19912;-79
2021/11/21 03:50:46;;;;;;;;;;;;;;;;;;5064819;28;19919;-80
2021/11/21 03:53:11;;;;;;;;;;;;;;;;;;5059104;28;19912;-80
2021/11/21 03:55:37;;;;;;;;;;;;;;;;;;5060695;28;20385;-79
2021/11/21 03:58:03;;;;;;;;;;;;;;;;;;5061230;28;19958;-79
2021/11/21 04:00:29;;;;;;;;;;;;;;;;;;5044420;28;20345;-79
2021/11/21 04:02:56;;;;;;;;;;;;;;;;;;5059996;28;19917;-79
2021/11/21 04:05:21;;;;;;;;;;;;;;;;;;5061089;28;19913;-79
2021/11/21 04:07:47;;;;;;;;;;;;;;;;;;5061098;28;19984;-79
2021/11/21 04:10:13;;;;;;;;;;;;;;;;;;5062808;28;19966;-80
2021/11/21 04:12:38;;;;;;;;;;;;;;;;;;5062443;28;19912;-79
2021/11/21 04:15:04;;;;;;;;;;;;;;;;;;5062274;28;19917;-80
2021/11/21 04:17:30;;;;;;;;;;;;;;;;;;5060813;28;20313;-79
2021/11/21 04:19:56;;;;;;;;;;;;;;;;;;5061331;28;19913;-80
2021/11/21 04:22:21;;;;;;;;;;;;;;;;;;5060537;28;19913;-80
2021/11/21 04:24:47;;;;;;;;;;;;;;;;;;5060575;28;20358;-80
2021/11/21 04:27:12;;;;;;;;;;;;;;;;;;5060488;28;20332;-80
2021/11/21 04:29:38;;;;;;;;;;;;;;;;;;5059865;28;19913;-80
2021/11/21 04:32:04;;;;;;;;;;;;;;;;;;5060517;28;19913;-80
2021/11/21 04:34:29;;;;;;;;;;;;;;;;;;5063196;28;19909;-80
2021/11/21 04:36:55;;;;;;;;;;;;;;;;;;5063600;28;19936;-81
2021/11/21 04:39:21;;;;;;;;;;;;;;;;;;5061940;28;20011;-80
2021/11/21 04:41:47;;;;;;;;;;;;;;;;;;5060530;28;19912;-80
2021/11/21 04:44:12;;;;;;;;;;;;;;;;;;5060435;28;19924;-80
2021/11/21 04:46:37;;;;;;;;;;;;;;;;;;5058806;28;19912;-80
2021/11/21 04:49:04;;;;;;;;;;;;;;;;;;5050268;28;19912;-80
2021/11/21 04:51:30;;;;;;;;;;;;;;;;;;5040517;28;20371;-80
2021/11/21 04:53:55;;;;;;;;;;;;;;;;;;5040656;28;19996;-79
2021/11/21 04:56:21;;;;;;;;;;;;;;;;;;5039238;28;19936;-80
2021/11/21 04:58:46;;;;;;;;;;;;;;;;;;5039634;28;19920;-80
2021/11/21 05:01:11;;;;;;;;;;;;;;;;;;5037164;28;20394;-80
2021/11/21 05:03:37;;;;;;;;;;;;;;;;;;5040871;28;20015;-80
2021/11/21 05:06:02;;;;;;;;;;;;;;;;;;5059210;28;19920;-80
2021/11/21 05:08:28;;;;;;;;;;;;;;;;;;5059145;28;19958;-80
2021/11/21 05:10:53;;;;;;;;;;;;;;;;;;5058572;28;20124;-80
2021/11/21 05:13:18;;;;;;;;;;;;;;;;;;5058105;28;19912;-80
2021/11/21 05:15:44;;;;;;;;;;;;;;;;;;5058344;28;19924;-80
2021/11/21 05:18:09;;;;;;;;;;;;;;;;;;5058549;28;19913;-80
2021/11/21 05:20:35;;;;;;;;;;;;;;;;;;5057289;28;20362;-80
2021/11/21 05:23:01;;;;;;;;;;;;;;;;;;5056670;28;19940;-80
2021/11/21 05:25:27;;;;;;;;;;;;;;;;;;5058603;28;20011;-80
2021/11/21 05:27:52;;;;;;;;;;;;;;;;;;5058155;28;19948;-80
2021/11/21 05:30:19;;;;;;;;;;;;;;;;;;5057537;28;20005;-81
2021/11/21 05:32:45;;;;;;;;;;;;;;;;;;5060972;28;19922;-81
2021/11/21 05:35:11;;;;;;;;;;;;;;;;;;5077016;28;19955;-81
2021/11/21 05:37:36;;;;;;;;;;;;;;;;;;5085622;28;19912;-81
2021/11/21 05:40:03;;;;;;;;;;;;;;;;;;5086200;28;19962;-81
2021/11/21 05:42:29;;;;;;;;;;;;;;;;;;5085176;28;19920;-81
2021/11/21 05:44:54;;;;;;;;;;;;;;;;;;5085050;28;19921;-81
2021/11/21 05:47:19;;;;;;;;;;;;;;;;;;5084979;28;19928;-81
2021/11/21 05:49:45;;;;;;;;;;;;;;;;;;5082690;28;19944;-81
2021/11/21 05:52:10;;;;;;;;;;;;;;;;;;5083038;28;20389;-80
2021/11/21 05:54:36;;;;;;;;;;;;;;;;;;5083370;28;20437;-80
2021/11/21 05:57:01;;;;;;;;;;;;;;;;;;5084084;28;19913;-81
2021/11/21 05:59:26;;;;;;;;;;;;;;;;;;5083259;28;19919;-81
2021/11/21 06:01:52;;;;;;;;;;;;;;;;;;5082839;28;19912;-81
2021/11/21 06:04:17;;;;;;;;;;;;;;;;;;5077198;28;19913;-81
2021/11/21 06:06:42;;;;;;;;;;;;;;;;;;5062702;28;19913;-81
2021/11/21 06:09:08;;;;;;;;;;;;;;;;;;5063503;28;19956;-81
2021/11/21 06:11:33;;;;;;;;;;;;;;;;;;5064041;28;19913;-81
2021/11/21 06:13:58;;;;;;;;;;;;;;;;;;5064201;28;19959;-81
2021/11/21 06:16:23;;;;;;;;;;;;;;;;;;5062407;28;19923;-80
2021/11/21 06:18:49;;;;;;;;;;;;;;;;;;5063050;28;19913;-81
2021/11/21 06:21:14;;;;;;;;;;;;;;;;;;5063724;28;19963;-81
2021/11/21 06:23:40;;;;;;;;;;;;;;;;;;5062971;28;19966;-81
2021/11/21 06:26:05;;;;;;;;;;;;;;;;;;5062191;28;20053;-81
2021/11/21 06:28:31;;;;;;;;;;;;;;;;;;5060846;28;19912;-80
2021/11/21 06:30:56;;;;;;;;;;;;;;;;;;5061762;28;19913;-80
2021/11/21 06:33:22;;;;;;;;;;;;;;;;;;5062000;28;20276;-81
2021/11/21 06:35:48;;;;;;;;;;;;;;;;;;5060763;28;19999;-80
2021/11/21 06:38:14;;;;;;;;;;;;;;;;;;5048211;28;19924;-80
2021/11/21 06:40:39;;;;;;;;;;;;;;;;;;5041659;28;20377;-80
2021/11/21 06:43:05;;;;;;;;;;;;;;;;;;5041809;28;19913;-80
2021/11/21 06:45:30;;;;;;;;;;;;;;;;;;5041024;28;20424;-80
2021/11/21 06:47:55;;;;;;;;;;;;;;;;;;5041919;28;19920;-80
2021/11/21 06:50:21;;;;;;;;;;;;;;;;;;5041791;28;20287;-81
2021/11/21 06:52:47;;;;;;;;;;;;;;;;;;5041462;28;19936;-81
2021/11/21 06:55:13;;;;;;;;;;;;;;;;;;5039758;28;20367;-81
2021/11/21 06:57:38;;;;;;;;;;;;;;;;;;5041186;28;19912;-81
2021/11/21 07:00:06;;;;;;;;;;;;;;;;;;5041998;28;19921;-81
2021/11/21 07:02:31;;;;;;;;;;;;;;;;;;5041771;28;19958;-81
2021/11/21 07:04:57;;;;;;;;;;;;;;;;;;5041977;28;20015;-77
2021/11/21 07:07:22;;;;;;;;;;;;;;;;;;5052391;28;19919;-78
2021/11/21 07:09:48;;;;;;;;;;;;;;;;;;5080805;28;19912;-79
2021/11/21 07:12:14;;;;;;;;;;;;;;;;;;5096638;28;19980;-79
2021/11/21 07:14:39;;;;;;;;;;;;;;;;;;5094750;28;19896;-79
2021/11/21 07:17:05;;;;;;;;;;;;;;;;;;5087372;28;19912;-79
2021/11/21 07:19:31;;;;;;;;;;;;;;;;;;5079227;28;19908;-77
2021/11/21 07:21:56;;;;;;;;;;;;;;;;;;5079365;28;19912;-78
2021/11/21 07:24:22;;;;;;;;;;;;;;;;;;5077323;28;19919;-76
2021/11/21 07:26:48;;;;;;;;;;;;;;;;;;5078482;28;19912;-80
2021/11/21 07:29:13;;;;;;;;;;;;;;;;;;5079456;28;19922;-78
2021/11/21 07:31:39;;;;;;;;;;;;;;;;;;5076255;28;19912;-76
2021/11/21 07:34:04;;;;;;;;;;;;;;;;;;5078237;28;19962;-78
2021/11/21 07:36:29;;;;;;;;;;;;;;;;;;5077052;28;20409;-78
2021/11/21 07:38:54;;;;;;;;;;;;;;;;;;5059937;28;20370;-79
2021/11/21 07:41:20;;;;;;;;;;;;;;;;;;5058212;28;20251;-79
2021/11/21 07:43:45;;;;;;;;;;;;;;;;;;5057632;28;19990;-79
2021/11/21 07:46:11;;;;;;;;;;;;;;;;;;5058143;28;20350;-79
2021/11/21 07:48:36;;;;;;;;;;;;;;;;;;5057926;28;19921;-80
2021/11/21 07:51:02;;;;;;;;;;;;;;;;;;5058165;28;19919;-79
2021/11/21 07:53:27;;;;;;;;;;;;;;;;;;5059612;28;19913;-79
2021/11/21 07:55:53;;;;;;;;;;;;;;;;;;5059482;28;20390;-80
2021/11/21 07:58:19;;;;;;;;;;;;;;;;;;5054960;28;19950;-76
2021/11/21 08:00:45;;;;;;;;;;;;;;;;;;5057000;28;20335;-78
2021/11/21 08:03:10;;;;;;;;;;;;;;;;;;5062195;28;19935;-77
2021/11/21 08:05:35;;;;;;;;;;;;;;;;;;5061271;28;20329;-78
2021/11/21 08:08:01;;;;;;;;;;;;;;;;;;5062901;28;19912;-79
2021/11/21 08:10:26;;;;;;;;;;;;;;;;;;5064983;28;19912;-78
2021/11/21 08:12:52;;;;;;;;;;;;;;;;;;5056944;28;20026;-77
2021/11/21 08:15:17;;;;;;;;;;;;;;;;;;5054838;28;19909;-76
2021/11/21 08:17:42;;;;;;;;;;;;;;;;;;5053601;28;20379;-77
2021/11/21 08:20:08;;;;;;;;;;;;;;;;;;5053055;28;19924;-76
2021/11/21 08:22:33;;;;;;;;;;;;;;;;;;5055166;28;19928;-78
2021/11/21 08:24:59;;;;;;;;;;;;;;;;;;5057274;28;19912;-76
2021/11/21 08:27:24;;;;;;;;;;;;;;;;;;5054354;28;19924;-74
2021/11/21 08:29:50;;;;;;;;;;;;;;;;;;5055501;28;19913;-79
2021/11/21 08:32:16;;;;;;;;;;;;;;;;;;5055690;28;19920;-76
2021/11/21 08:34:41;;;;;;;;;;;;;;;;;;5054266;28;19965;-75
2021/11/21 08:37:07;;;;;;;;;;;;;;;;;;5054041;28;20314;-77
2021/11/21 08:39:33;;;;;;;;;;;;;;;;;;5054151;28;19920;-77
2021/11/21 08:41:58;;;;;;;;;;;;;;;;;;5057478;28;19913;-84
2021/11/21 08:44:24;;;;;;;;;;;;;;;;;;5058120;28;19924;-78
2021/11/21 08:46:50;;;;;;;;;;;;;;;;;;5058704;28;19919;-77
2021/11/21 08:49:15;;;;;;;;;;;;;;;;;;5057219;28;19952;-76
2021/11/21 08:51:43;;;;;;;;;;;;;;;;;;5055648;28;19958;-78
2021/11/21 08:54:08;;;;;;;;;;;;;;;;;;5055112;28;19913;-76
2021/11/21 08:56:33;;;;;;;;;;;;;;;;;;5054615;28;19916;-76
2021/11/21 08:58:59;;;;;;;;;;;;;;;;;;5057215;28;19916;-76
2021/11/21 09:01:25;;;;;;;;;;;;;;;;;;5038999;28;19920;-75
2021/11/21 09:03:50;;;;;;;;;;;;;;;;;;5054675;28;19997;-77
2021/11/21 09:06:15;;;;;;;;;;;;;;;;;;5054711;28;20374;-76
2021/11/21 09:08:40;;;;;;;;;;;;;;;;;;5054197;28;20050;-76
2021/11/21 09:11:06;;;;;;;;;;;;;;;;;;5055377;28;19919;-76
2021/11/21 09:13:31;;;;;;;;;;;;;;;;;;5055535;28;19908;-76
2021/11/21 09:15:58;;;;;;;;;;;;;;;;;;5056370;28;19913;-77
2021/11/21 09:18:25;;;;;;;;;;;;;;;;;;5054344;28;19935;-77
2021/11/21 09:20:53;;;;;;;;;;;;;;;;;;5053925;28;19970;-78
2021/11/21 09:23:19;;;;;;;;;;;;;;;;;;5055360;28;19959;-77
2021/11/21 09:25:45;;;;;;;;;;;;;;;;;;5057087;28;19921;-78
2021/11/21 09:28:11;;;;;;;;;;;;;;;;;;5058962;28;19927;-79
2021/11/21 09:30:36;;;;;;;;;;;;;;;;;;5058027;28;19920;-79
2021/11/21 09:33:02;;;;;;;;;;;;;;;;;;5057381;28;19912;-79
2021/11/21 09:35:27;;;;;;;;;;;;;;;;;;5057164;28;20317;-76
2021/11/21 09:37:52;;;;;;;;;;;;;;;;;;5057495;28;20002;-77
2021/11/21 09:40:18;;;;;;;;;;;;;;;;;;5055998;28;19924;-76
2021/11/21 09:42:43;;;;;;;;;;;;;;;;;;5054746;28;19917;-76
2021/11/21 09:45:10;;;;;;;;;;;;;;;;;;5054202;28;19917;-78
2021/11/21 09:47:35;;;;;;;;;;;;;;;;;;5056946;28;19963;-79
2021/11/21 09:50:06;;;;;;;;;;;;;;;;;;5058453;28;19912;-79
2021/11/21 09:52:31;;;;;;;;;;;;;;;;;;5056248;28;19920;-78
2021/11/21 09:54:56;;;;;;;;;;;;;;;;;;5039079;28;20263;-80
2021/11/21 09:57:24;;;;;;;;;;;;;;;;;;5058302;28;19972;-83
2021/11/21 10:00:01;;;;;;;;;;;;;;;;;;5061308;28;19943;-81
2021/11/21 10:02:33;;;;;;;;;;;;;;;;;;5060600;28;19943;-81
2021/11/21 10:05:02;;;;;;;;;;;;;;;;;;5058480;28;20247;-81
2021/11/21 10:07:30;;;;;;;;;;;;;;;;;;5068457;28;19919;-81
2021/11/21 10:09:57;;;;;;;;;;;;;;;;;;5066379;28;20405;-81
2021/11/21 10:12:23;;;;;;;;;;;;;;;;;;5063488;28;19970;-82
2021/11/21 10:14:59;;;;;;;;;;;;;;;;;;5062538;28;20354;-80
2021/11/21 10:17:25;;;;;;;;;;;;;;;;;;5061243;28;19962;-82
2021/11/21 10:20:11;;;;;;;;;;;;;;;;;;5062109;28;19939;-78
2021/11/21 10:22:54;;;;;;;;;;;;;;;;;;5054386;28;20359;-77
2021/11/21 10:25:31;;;;;;;;;;;;;;;;;;5071609;28;19912;-78
2021/11/21 10:28:23;;;;;;;;;;;;;;;;;;5071980;28;19912;-78
2021/11/21 10:30:54;;;;;;;;;;;;;;;;;;5065139;28;19939;-78
2021/11/21 10:33:22;;;;;;;;;;;;;;;;;;5063981;28;20298;-78
2021/11/21 10:35:51;;;;;;;;;;;;;;;;;;5070417;28;20338;-80
2021/11/21 10:38:17;;;;;;;;;;;;;;;;;;5065678;28;19913;-80
2021/11/21 10:40:42;;;;;;;;;;;;;;;;;;5065748;28;19932;-80
2021/11/21 10:43:07;;;;;;;;;;;;;;;;;;5068587;28;19912;-80
2021/11/21 10:45:33;;;;;;;;;;;;;;;;;;5065539;28;19916;-80
2021/11/21 10:48:00;;;;;;;;;;;;;;;;;;5063780;28;19920;-82
2021/11/21 10:50:38;;;;;;;;;;;;;;;;;;5060616;28;19955;-82
2021/11/21 10:53:07;;;;;;;;;;;;;;;;;;5064802;28;19912;-82
2021/11/21 10:55:32;;;;;;;;;;;;;;;;;;5064480;28;20027;-84
2021/11/21 10:58:10;;;;;;;;;;;;;;;;;;5064082;28;19913;-85
2021/11/21 11:00:36;;;;;;;;;;;;;;;;;;5065432;28;20011;-80
2021/11/21 11:03:01;;;;;;;;;;;;;;;;;;5067540;28;19913;-80
2021/11/21 11:05:27;;;;;;;;;;;;;;;;;;5066057;28;19923;-80
2021/11/21 11:07:57;;;;;;;;;;;;;;;;;;5068476;28;19943;-80
2021/11/21 11:10:24;;;;;;;;;;;;;;;;;;5067763;28;19912;-80
2021/11/21 11:12:57;;;;;;;;;;;;;;;;;;5061358;28;19913;-80
2021/11/21 11:15:25;;;;;;;;;;;;;;;;;;5061391;28;19975;-78
2021/11/21 11:17:50;;;;;;;;;;;;;;;;;;5056772;28;19927;-77
2021/11/21 11:20:17;;;;;;;;;;;;;;;;;;5055186;28;19920;-75
2021/11/21 11:22:43;;;;;;;;;;;;;;;;;;5055748;28;19912;-75
2021/11/21 11:25:17;;;;;;;;;;;;;;;;;;5056362;28;20265;-79
2021/11/21 11:27:44;;;;;;;;;;;;;;;;;;5051274;28;20334;-78
2021/11/21 11:30:10;;;;;;;;;;;;;;;;;;5044772;28;19952;-78
2021/11/21 11:32:37;;;;;;;;;;;;;;;;;;5044490;28;19960;-78
2021/11/21 11:35:14;;;;;;;;;;;;;;;;;;5045972;28;19916;-77
2021/11/21 11:37:41;;;;;;;;;;;;;;;;;;5046291;28;19912;-80
2021/11/21 11:40:27;;;;;;;;;;;;;;;;;;5044841;28;19917;-80
2021/11/21 11:42:53;;;;;;;;;;;;;;;;;;5048304;28;20318;-80
2021/11/21 11:45:38;;;;;;;;;;;;;;;;;;5059317;28;20012;-85
2021/11/21 11:48:22;;;;;;;;;;;;;;;;;;5056581;28;20374;-79
2021/11/21 11:50:47;;;;;;;;;;;;;;;;;;5059121;28;20282;-80
2021/11/21 11:53:31;;;;;;;;;;;;;;;;;;5057371;28;19912;-79
2021/11/21 11:56:09;;;;;;;;;;;;;;;;;;5055757;28;19952;-78
2021/11/21 11:58:49;;;;;;;;;;;;;;;;;;5056049;28;19924;-80
2021/11/21 12:01:35;;;;;;;;;;;;;;;;;;5055393;28;19920;-78
2021/11/21 12:04:02;;;;;;;;;;;;;;;;;;5059507;28;19962;-78
2021/11/21 12:06:41;;;;;;;;;;;;;;;;;;5057295;28;19916;-78
2021/11/21 12:09:18;;;;;;;;;;;;;;;;;;5057107;28;19913;-78
2021/11/21 12:11:56;;;;;;;;;;;;;;;;;;5059419;28;20289;-78
2021/11/21 12:14:37;;;;;;;;;;;;;;;;;;5060803;28;20274;-81
2021/11/21 12:17:06;;;;;;;;;;;;;;;;;;5055456;28;20372;-79
2021/11/21 12:20:03;;;;;;;;;;;;;;;;;;5055484;28;19920;-79
2021/11/21 12:22:37;;;;;;;;;;;;;;;;;;5048289;28;19917;-79
2021/11/21 12:25:04;;;;;;;;;;;;;;;;;;5056688;28;19919;-78
2021/11/21 12:27:32;;;;;;;;;;;;;;;;;;5055022;28;20006;-76
2021/11/21 12:30:13;;;;;;;;;;;;;;;;;;5053008;28;19912;-76
2021/11/21 12:32:45;;;;;;;;;;;;;;;;;;5053150;28;20374;-76
2021/11/21 12:35:19;;;;;;;;;;;;;;;;;;5054127;28;19912;-76
2021/11/21 12:37:46;;;;;;;;;;;;;;;;;;5053482;28;19923;-76
2021/11/21 12:40:14;;;;;;;;;;;;;;;;;;5054105;28;20286;-76
2021/11/21 12:42:40;;;;;;;;;;;;;;;;;;5054211;28;19963;-76
2021/11/21 12:45:12;;;;;;;;;;;;;;;;;;5053805;28;20343;-76
2021/11/21 12:47:38;;;;;;;;;;;;;;;;;;5054188;28;19913;-76
2021/11/21 12:50:04;;;;;;;;;;;;;;;;;;5054218;28;19925;-76
2021/11/21 12:52:30;;;;;;;;;;;;;;;;;;5054048;28;19960;-76
2021/11/21 12:54:55;;;;;;;;;;;;;;;;;;5052603;28;19912;-76
2021/11/21 12:57:20;;;;;;;;;;;;;;;;;;5054031;28;19919;-75
2021/11/21 12:59:49;;;;;;;;;;;;;;;;;;5053682;28;19936;-76
2021/11/21 13:02:15;;;;;;;;;;;;;;;;;;5053752;28;19978;-76
2021/11/21 13:04:54;;;;;;;;;;;;;;;;;;5051772;28;19919;-76
2021/11/21 13:07:26;;;;;;;;;;;;;;;;;;5053859;28;19959;-76
2021/11/21 13:10:03;;;;;;;;;;;;;;;;;;5053724;28;19919;-76
2021/11/21 13:12:29;;;;;;;;;;;;;;;;;;5053745;28;19920;-77
2021/11/21 13:14:56;;;;;;;;;;;;;;;;;;5053378;28;20411;-77
2021/11/21 13:17:21;;;;;;;;;;;;;;;;;;5053671;28;19917;-77
2021/11/21 13:19:58;;;;;;;;;;;;;;;;;;5053640;28;20015;-76
2021/11/21 13:22:23;;;;;;;;;;;;;;;;;;5052883;28;19912;-77
2021/11/21 13:24:52;;;;;;;;;;;;;;;;;;5053621;28;20333;-77
2021/11/21 13:27:19;;;;;;;;;;;;;;;;;;5053466;28;19958;-76
2021/11/21 13:29:44;;;;;;;;;;;;;;;;;;5053592;28;19920;-77
2021/11/21 13:32:09;;;;;;;;;;;;;;;;;;5053582;28;19912;-76
2021/11/21 13:34:37;;;;;;;;;;;;;;;;;;5053648;28;20397;-76
2021/11/21 13:37:07;;;;;;;;;;;;;;;;;;5052782;28;19912;-76
2021/11/21 13:39:36;;;;;;;;;;;;;;;;;;5052429;28;20347;-76
2021/11/21 13:42:05;;;;;;;;;;;;;;;;;;5053156;28;19916;-76
2021/11/21 13:44:31;;;;;;;;;;;;;;;;;;5051810;28;20271;-76
2021/11/21 13:47:01;;;;;;;;;;;;;;;;;;5053373;28;19912;-77
2021/11/21 13:49:28;;;;;;;;;;;;;;;;;;5053498;28;20295;-76
2021/11/21 13:51:58;;;;;;;;;;;;;;;;;;5053498;28;19917;-76
2021/11/21 13:54:26;;;;;;;;;;;;;;;;;;5041226;28;19920;-76
2021/11/21 13:56:52;;;;;;;;;;;;;;;;;;5035879;28;19916;-76
2021/11/21 13:59:17;;;;;;;;;;;;;;;;;;5036863;28;19913;-75
2021/11/21 14:01:48;;;;;;;;;;;;;;;;;;5036978;28;19913;-75
2021/11/21 14:04:14;;;;;;;;;;;;;;;;;;5037243;28;19920;-76
2021/11/21 14:06:40;;;;;;;;;;;;;;;;;;5048776;28;19912;-76
2021/11/21 14:09:10;;;;;;;;;;;;;;;;;;5056036;28;19923;-75
2021/11/21 14:11:38;;;;;;;;;;;;;;;;;;5057151;28;19916;-75
2021/11/21 14:14:14;;;;;;;;;;;;;;;;;;5056892;28;19912;-76
2021/11/21 14:16:43;;;;;;;;;;;;;;;;;;5054535;28;19912;-76
2021/11/21 14:19:22;;;;;;;;;;;;;;;;;;5056784;28;19920;-76
2021/11/21 14:22:01;;;;;;;;;;;;;;;;;;5056741;28;20003;-76
2021/11/21 14:24:27;;;;;;;;;;;;;;;;;;5056630;28;19939;-76
2021/11/21 14:27:04;;;;;;;;;;;;;;;;;;5056886;28;20425;-76
2021/11/21 14:29:29;;;;;;;;;;;;;;;;;;5056911;28;20264;-76
2021/11/21 14:31:58;;;;;;;;;;;;;;;;;;5056594;28;19920;-76
2021/11/21 14:34:28;;;;;;;;;;;;;;;;;;5056604;28;19909;-76
2021/11/21 14:36:54;;;;;;;;;;;;;;;;;;5056467;28;19913;-76
2021/11/21 14:39:23;;;;;;;;;;;;;;;;;;5055402;28;19999;-75
2021/11/21 14:41:48;;;;;;;;;;;;;;;;;;5056323;28;19924;-75
2021/11/21 14:44:16;;;;;;;;;;;;;;;;;;5056274;28;19916;-75
2021/11/21 14:46:42;;;;;;;;;;;;;;;;;;5056438;28;19923;-74
2021/11/21 14:49:08;;;;;;;;;;;;;;;;;;5055471;28;20011;-74
2021/11/21 14:51:34;;;;;;;;;;;;;;;;;;5056456;28;19955;-74
2021/11/21 14:54:06;;;;;;;;;;;;;;;;;;5056215;28;19919;-74
2021/11/21 14:56:32;;;;;;;;;;;;;;;;;;5056256;28;19920;-75
2021/11/21 14:58:57;;;;;;;;;;;;;;;;;;5056072;28;19913;-75
2021/11/21 15:01:33;;;;;;;;;;;;;;;;;;5056040;28;19923;-75
2021/11/21 15:04:02;;;;;;;;;;;;;;;;;;5054989;28;19955;-75
2021/11/21 15:06:29;;;;;;;;;;;;;;;;;;5054761;28;19913;-75
2021/11/21 15:08:58;;;;;;;;;;;;;;;;;;5054880;28;20358;-75
2021/11/21 15:11:24;;;;;;;;;;;;;;;;;;5055825;28;20319;-75
2021/11/21 15:13:49;;;;;;;;;;;;;;;;;;5054876;28;19939;-76
2021/11/21 15:16:14;;;;;;;;;;;;;;;;;;5050748;28;19912;-77
2021/11/21 15:18:40;;;;;;;;;;;;;;;;;;5055884;28;20003;-76
2021/11/21 15:21:05;;;;;;;;;;;;;;;;;;5055761;28;19924;-76
2021/11/21 15:23:31;;;;;;;;;;;;;;;;;;5054699;28;19912;-77
2021/11/21 15:25:56;;;;;;;;;;;;;;;;;;5044954;28;19917;-77
2021/11/21 15:28:21;;;;;;;;;;;;;;;;;;5043545;28;20271;-77
2021/11/21 15:30:47;;;;;;;;;;;;;;;;;;5045223;28;19919;-77
2021/11/21 15:33:12;;;;;;;;;;;;;;;;;;5038209;28;20322;-76
2021/11/21 15:35:37;;;;;;;;;;;;;;;;;;5053535;28;19913;-76
2021/11/21 15:38:03;;;;;;;;;;;;;;;;;;5055724;28;19971;-76
2021/11/21 15:40:28;;;;;;;;;;;;;;;;;;5054814;28;20441;-75
2021/11/21 15:42:54;;;;;;;;;;;;;;;;;;5054157;28;20358;-76
2021/11/21 15:45:19;;;;;;;;;;;;;;;;;;5054876;28;19995;-76
2021/11/21 15:47:45;;;;;;;;;;;;;;;;;;5055156;28;20309;-76
2021/11/21 15:50:14;;;;;;;;;;;;;;;;;;5055067;28;19995;-76
2021/11/21 15:52:39;;;;;;;;;;;;;;;;;;5055220;28;19913;-76
2021/11/21 15:55:05;;;;;;;;;;;;;;;;;;5054240;28;20275;-76
2021/11/21 15:57:31;;;;;;;;;;;;;;;;;;5054763;28;19913;-76
2021/11/21 15:59:56;;;;;;;;;;;;;;;;;;5053942;28;19919;-76
2021/11/21 16:02:21;;;;;;;;;;;;;;;;;;5054626;28;19912;-75
2021/11/21 16:04:51;;;;;;;;;;;;;;;;;;5052982;28;19977;-75
2021/11/21 16:07:17;;;;;;;;;;;;;;;;;;5054788;28;19912;-75
2021/11/21 16:09:42;;;;;;;;;;;;;;;;;;5054862;28;19912;-75
2021/11/21 16:12:08;;;;;;;;;;;;;;;;;;5053805;28;19928;-75
2021/11/21 16:14:33;;;;;;;;;;;;;;;;;;5053842;28;19959;-75
2021/11/21 16:17:02;;;;;;;;;;;;;;;;;;5054663;28;19920;-75
2021/11/21 16:19:28;;;;;;;;;;;;;;;;;;5054139;28;19959;-76
2021/11/21 16:21:53;;;;;;;;;;;;;;;;;;5054647;28;19955;-75
2021/11/21 16:24:20;;;;;;;;;;;;;;;;;;5054466;28;19913;-76
2021/11/21 16:26:47;;;;;;;;;;;;;;;;;;5053400;28;19917;-75
2021/11/21 16:29:13;;;;;;;;;;;;;;;;;;5054590;28;19917;-75
2021/11/21 16:31:44;;;;;;;;;;;;;;;;;;5054412;28;19920;-76
2021/11/21 16:34:09;;;;;;;;;;;;;;;;;;5054400;28;20006;-76
2021/11/21 16:36:34;;;;;;;;;;;;;;;;;;5054492;28;19959;-76
2021/11/21 16:39:00;;;;;;;;;;;;;;;;;;5053455;28;19917;-75
2021/11/21 16:41:29;;;;;;;;;;;;;;;;;;5054188;28;19921;-75
2021/11/21 16:44:03;;;;;;;;;;;;;;;;;;5054271;28;19921;-76
2021/11/21 16:46:29;;;;;;;;;;;;;;;;;;5053736;28;20294;-75